Time;durP1;ratioP1;P1;durP2;ratioP2;P2;SDS_P1;SDS_P2;PMS_P1;PMS_P2;Temp;Humidity;BMP_temperature;BMP_pressure;BME280_temperature;BME280_humidity;BME280_pressure;Samples;Min_cycle;Max_cycle;Signal;HPM_P1;HPM_P2
2021/12/28 00:00:08;;;;;;;112.70;54.38;;;;;;;-6.95;100.00;98959.06;5053059;28;20021;-79
2021/12/28 00:02:33;;;;;;;119.97;58.00;;;;;;;-6.99;100.00;98952.25;5053724;28;20120;-79
2021/12/28 00:04:58;;;;;;;117.18;59.88;;;;;;;-7.05;100.00;98938.69;5053349;28;20036;-79
2021/12/28 00:07:24;;;;;;;110.35;54.25;;;;;;;-7.05;100.00;98930.25;5053461;28;20058;-80
2021/12/28 00:09:49;;;;;;;127.90;62.75;;;;;;;-7.13;100.00;98920.03;5053086;28;20045;-79
2021/12/28 00:12:15;;;;;;;128.35;62.83;;;;;;;-7.04;100.00;98942.06;5053227;28;20021;-79
2021/12/28 00:14:49;;;;;;;124.93;59.17;;;;;;;-7.09;100.00;98936.13;5053088;28;20100;-80
2021/12/28 00:19:59;;;;;;;127.20;59.92;;;;;;;-7.12;100.00;98938.59;5052704;28;20130;-79
2021/12/28 00:22:24;;;;;;;120.00;59.50;;;;;;;-7.10;100.00;98931.88;5052920;28;20524;-80
2021/12/28 00:24:50;;;;;;;118.50;58.17;;;;;;;-7.15;100.00;98929.31;5052675;28;20388;-80
2021/12/28 00:27:15;;;;;;;119.00;60.63;;;;;;;-7.17;100.00;98920.84;5052797;28;20033;-80
2021/12/28 00:29:42;;;;;;;129.90;59.92;;;;;;;-7.16;100.00;98921.69;5051453;28;20032;-80
2021/12/28 00:32:08;;;;;;;130.13;63.45;;;;;;;-7.49;100.00;98872.38;5051455;28;20032;-80
2021/12/28 00:34:35;;;;;;;125.43;63.08;;;;;;;-7.30;100.00;98898.75;5052874;28;20032;-79
2021/12/28 00:37:00;;;;;;;119.50;60.30;;;;;;;-7.26;100.00;98910.59;5052489;28;20058;-80
2021/12/28 00:39:25;;;;;;;136.80;67.10;;;;;;;-7.26;100.00;98903.00;5051236;28;20028;-80
2021/12/28 00:41:51;;;;;;;134.90;63.60;;;;;;;-7.29;100.00;98900.44;5050128;28;20028;-79
2021/12/28 00:44:18;;;;;;;122.45;62.05;;;;;;;-7.36;100.00;98893.63;5052753;28;20499;-79
2021/12/28 00:46:44;;;;;;;128.75;63.25;;;;;;;-7.28;100.00;98913.13;5052504;28;20029;-80
2021/12/28 00:49:09;;;;;;;145.88;72.70;;;;;;;-7.29;100.00;98903.84;5052599;28;20491;-80
2021/12/28 00:51:35;;;;;;;130.38;64.85;;;;;;;-7.26;100.00;98908.06;5067602;28;20033;-80
2021/12/28 00:54:00;;;;;;;144.52;68.57;;;;;;;-7.34;100.00;98879.28;5052107;28;20025;-80
2021/12/28 00:56:25;;;;;;;139.07;67.93;;;;;;;-7.38;100.00;98877.56;5052256;28;20025;-79
2021/12/28 00:58:51;;;;;;;128.25;60.35;;;;;;;-7.34;100.00;98882.66;5050686;28;20115;-80
2021/12/28 01:01:16;;;;;;;127.38;61.90;;;;;;;-7.42;100.00;98876.66;5052355;28;20029;-80
2021/12/28 01:03:42;;;;;;;119.45;63.17;;;;;;;-7.29;100.00;98900.44;5052308;28;20475;-80
2021/12/28 01:06:07;;;;;;;128.65;62.75;;;;;;;-7.32;100.00;98901.25;5069118;28;20040;-80
2021/12/28 01:08:33;;;;;;;126.38;63.55;;;;;;;-7.31;100.00;98900.44;5069586;28;20487;-80
2021/12/28 01:10:58;;;;;;;143.18;67.38;;;;;;;-7.35;100.00;98886.03;5069129;28;20377;-80
2021/12/28 01:13:25;;;;;;;137.02;64.80;;;;;;;-7.41;100.00;98890.19;5069386;28;20040;-80
2021/12/28 01:15:52;;;;;;;123.05;62.35;;;;;;;-7.31;100.00;98904.63;5052511;28;20029;-80
2021/12/28 01:18:18;;;;;;;145.07;70.22;;;;;;;-7.35;100.00;98892.78;5069472;28;20411;-80
2021/12/28 01:20:45;;;;;;;132.85;64.22;;;;;;;-7.27;100.00;98893.72;5069172;28;20067;-80
2021/12/28 01:23:11;;;;;;;122.72;60.50;;;;;;;-7.35;100.00;98893.63;5069435;28;20093;-80
2021/12/28 01:25:37;;;;;;;137.15;66.63;;;;;;;-7.44;100.00;98874.97;5052582;28;20094;-80
2021/12/28 01:28:04;;;;;;;127.65;65.43;;;;;;;-7.42;100.00;98875.81;5069248;28;20032;-80
2021/12/28 01:30:30;;;;;;;124.22;63.85;;;;;;;-7.35;100.00;98907.97;5069496;28;20074;-80
2021/12/28 01:32:59;;;;;;;128.77;63.50;;;;;;;-7.41;100.00;98893.56;5052325;28;20036;-80
2021/12/28 01:35:25;;;;;;;144.63;67.38;;;;;;;-7.43;100.00;98896.91;5069355;28;20028;-80
2021/12/28 01:37:50;;;;;;;128.73;63.33;;;;;;;-7.37;100.00;98915.53;5054937;28;20033;-80
2021/12/28 01:40:24;;;;;;;144.15;63.33;;;;;;;-7.39;100.00;98906.22;5050229;28;20025;-80
2021/12/28 01:42:57;;;;;;;130.00;62.13;;;;;;;-7.36;100.00;98917.22;5051534;28;20484;-79
2021/12/28 01:45:55;;;;;;;125.20;62.88;;;;;;;-7.37;100.00;98902.88;5050509;28;20025;-80
2021/12/28 01:48:35;;;;;;;131.55;67.38;;;;;;;-7.41;100.00;98891.03;5069071;28;20052;-80
2021/12/28 01:51:05;;;;;;;143.07;67.38;;;;;;;-7.33;100.00;98901.22;5052200;28;20072;-80
2021/12/28 01:53:31;;;;;;;129.98;64.70;;;;;;;-7.37;100.00;98899.53;5070960;28;20414;-79
2021/12/28 01:56:00;;;;;;;137.35;68.57;;;;;;;-7.37;100.00;98892.78;5073163;28;20028;-80
2021/12/28 01:58:26;;;;;;;140.98;68.82;;;;;;;-7.38;100.00;98883.47;5056175;28;20377;-80
2021/12/28 02:00:53;;;;;;;145.25;70.95;;;;;;;-7.35;100.00;98895.31;5072953;28;20028;-80
2021/12/28 02:03:22;;;;;;;144.55;69.70;;;;;;;-7.40;100.00;98872.50;5073103;28;20486;-79
2021/12/28 02:05:48;;;;;;;134.98;67.63;;;;;;;-7.45;100.00;98858.09;5072744;28;20028;-80
2021/12/28 02:08:14;;;;;;;137.45;69.57;;;;;;;-7.39;100.00;98870.81;5072982;28;20032;-80
2021/12/28 02:10:42;;;;;;;131.80;67.13;;;;;;;-7.38;100.00;98870.81;5056218;28;20620;-80
2021/12/28 02:13:08;;;;;;;135.45;68.60;;;;;;;-7.39;100.00;98866.59;5072950;28;20526;-79
2021/12/28 02:15:35;;;;;;;142.52;69.63;;;;;;;-7.57;100.00;98828.44;5072841;28;20048;-80
2021/12/28 02:18:00;;;;;;;156.98;73.13;;;;;;;-7.38;100.00;98855.63;5072476;28;20078;-80
2021/12/28 02:20:26;;;;;;;150.98;72.10;;;;;;;-7.38;100.00;98855.63;5055961;28;20032;-80
2021/12/28 02:22:51;;;;;;;152.68;72.45;;;;;;;-7.30;100.00;98873.44;5055753;28;20116;-80
2021/12/28 02:25:19;;;;;;;136.30;71.30;;;;;;;-7.36;100.00;98848.09;5062078;28;20480;-80
2021/12/28 02:27:44;;;;;;;147.43;73.63;;;;;;;-7.52;100.00;98821.75;5055265;28;20063;-80
2021/12/28 02:30:14;;;;;;;153.25;77.15;;;;;;;-7.36;100.00;98848.94;5053844;28;20021;-80
2021/12/28 02:32:40;;;;;;;151.38;74.70;;;;;;;-7.40;100.00;98856.47;5070532;28;20029;-80
2021/12/28 02:35:09;;;;;;;155.20;74.55;;;;;;;-7.34;100.00;98857.38;5053541;28;20086;-80
2021/12/28 02:37:35;;;;;;;154.85;75.88;;;;;;;-7.34;100.00;98852.31;5055043;28;20091;-79
2021/12/28 02:40:02;;;;;;;150.25;70.43;;;;;;;-7.39;100.00;98843.81;5053267;28;20435;-79
2021/12/28 02:42:27;;;;;;;154.43;76.50;;;;;;;-7.37;100.00;98852.31;5053546;28;20029;-80
2021/12/28 02:45:07;;;;;;;164.13;76.85;;;;;;;-7.46;100.00;98831.94;5054425;28;20036;-80
2021/12/28 02:47:37;;;;;;;149.77;70.90;;;;;;;-7.47;100.00;98826.88;5054924;28;20029;-79
2021/12/28 02:50:06;;;;;;;155.73;77.30;;;;;;;-7.29;100.00;98845.66;5054615;28;20029;-80
2021/12/28 02:52:36;;;;;;;159.77;77.78;;;;;;;-7.43;100.00;98821.00;5053619;28;20055;-79
2021/12/28 02:55:05;;;;;;;154.02;74.82;;;;;;;-7.51;100.00;98804.91;5053040;28;20029;-80
2021/12/28 02:57:30;;;;;;;162.38;77.70;;;;;;;-7.33;100.00;98825.34;5054364;28;20558;-80
2021/12/28 02:59:55;;;;;;;161.15;76.15;;;;;;;-7.47;100.00;98822.66;5053114;28;20029;-80
2021/12/28 03:02:21;;;;;;;146.68;74.72;;;;;;;-7.25;100.00;98845.66;5053170;28;20029;-79
2021/12/28 03:04:46;;;;;;;160.88;75.63;;;;;;;-7.28;100.00;98841.44;5053384;28;20021;-80
2021/12/28 03:07:12;;;;;;;151.57;74.30;;;;;;;-7.33;100.00;98831.28;5054418;28;20033;-80
2021/12/28 03:09:38;;;;;;;144.18;73.05;;;;;;;-7.33;100.00;98831.28;5053102;28;20123;-80
2021/12/28 03:12:04;;;;;;;155.43;77.18;;;;;;;-7.29;100.00;98833.00;5052939;28;20540;-80
2021/12/28 03:14:30;;;;;;;156.18;79.45;;;;;;;-7.38;100.00;98815.16;5053013;28;20025;-80
2021/12/28 03:16:55;;;;;;;165.60;82.63;;;;;;;-7.30;100.00;98832.97;5054153;28;20036;-80
2021/12/28 03:19:20;;;;;;;150.38;77.43;;;;;;;-7.30;100.00;98822.84;5052899;28;20040;-80
2021/12/28 03:21:46;;;;;;;165.18;81.57;;;;;;;-7.42;100.00;98800.78;5052534;28;20024;-80
2021/12/28 03:24:12;;;;;;;157.82;80.38;;;;;;;-7.26;100.00;98823.72;5054031;28;20540;-79
2021/12/28 03:26:38;;;;;;;161.25;82.47;;;;;;;-7.26;100.00;98826.28;5053896;28;20029;-80
2021/12/28 03:29:04;;;;;;;159.73;81.78;;;;;;;-7.26;100.00;98816.16;5053941;28;20118;-80
2021/12/28 03:31:30;;;;;;;166.68;83.22;;;;;;;-7.30;100.00;98813.56;5069487;28;20035;-80
2021/12/28 03:33:55;;;;;;;158.95;76.80;;;;;;;-7.30;100.00;98825.38;5053722;28;20033;-80
2021/12/28 03:36:25;;;;;;;158.88;80.97;;;;;;;-7.27;100.00;98822.88;5052467;28;20028;-80
2021/12/28 03:38:51;;;;;;;153.70;77.65;;;;;;;-7.23;100.00;98817.03;5052126;28;20035;-80
2021/12/28 03:41:20;;;;;;;160.52;80.18;;;;;;;-7.24;100.00;98815.34;5052634;28;20373;-80
2021/12/28 03:43:48;;;;;;;159.40;77.75;;;;;;;-7.32;100.00;98806.81;5052334;28;20361;-80
2021/12/28 03:46:14;;;;;;;157.50;80.35;;;;;;;-7.32;100.00;98801.75;5052401;28;20475;-80
2021/12/28 03:48:40;;;;;;;160.25;79.22;;;;;;;-7.25;100.00;98813.63;5053759;28;20036;-81
2021/12/28 03:51:06;;;;;;;161.57;80.55;;;;;;;-7.20;100.00;98812.00;5053598;28;20083;-80
2021/12/28 03:53:33;;;;;;;156.50;78.70;;;;;;;-7.25;100.00;98808.56;5053381;28;20100;-81
2021/12/28 03:55:59;;;;;;;156.80;79.63;;;;;;;-7.23;100.00;98808.59;5052118;28;20024;-80
2021/12/28 03:58:25;;;;;;;151.95;73.85;;;;;;;-7.24;100.00;98809.44;5053426;28;20396;-80
2021/12/28 04:00:51;;;;;;;153.52;77.65;;;;;;;-7.22;100.00;98803.53;5052038;28;20025;-80
2021/12/28 04:03:17;;;;;;;156.55;76.25;;;;;;;-7.26;100.00;98796.75;5030776;28;20128;-80
2021/12/28 04:05:44;;;;;;;163.98;79.90;;;;;;;-7.30;100.00;98789.97;5030906;28;20041;-80
2021/12/28 04:08:11;;;;;;;148.90;76.45;;;;;;;-7.24;100.00;98795.09;5030844;28;20042;-80
2021/12/28 04:10:51;;;;;;;147.50;74.40;;;;;;;-7.35;100.00;98776.41;5030780;28;20049;-80
2021/12/28 04:13:17;;;;;;;;;;;;;;;-7.21;100.00;98791.75;5031286;28;20053;-80
2021/12/28 04:15:43;;;;;;;159.68;80.07;;;;;;;-7.26;100.00;98775.66;5030759;28;19909;-80
2021/12/28 04:18:09;;;;;;;147.27;71.70;;;;;;;-7.38;100.00;98762.03;5030467;28;20044;-80
2021/12/28 04:20:34;;;;;;;155.18;78.10;;;;;;;-7.25;100.00;98784.94;5030550;28;20167;-80
2021/12/28 04:22:59;;;;;;;146.77;69.85;;;;;;;-7.46;100.00;98747.63;5013641;28;20068;-80
2021/12/28 04:25:25;;;;;;;166.57;80.03;;;;;;;-7.32;100.00;98786.59;5030891;28;20129;-80
2021/12/28 04:27:50;;;;;;;148.02;72.13;;;;;;;-7.22;100.00;98798.47;5013552;28;20025;-80
2021/12/28 04:30:16;;;;;;;157.10;78.78;;;;;;;-7.35;100.00;98772.22;5013892;28;20124;-80
2021/12/28 04:32:43;;;;;;;151.57;75.95;;;;;;;-7.20;100.00;98794.31;5030325;28;20029;-80
2021/12/28 04:35:10;;;;;;;146.65;74.32;;;;;;;-7.33;100.00;98775.63;5045304;28;20040;-80
2021/12/28 04:37:35;;;;;;;156.35;75.10;;;;;;;-7.28;100.00;98770.59;5052778;28;20492;-80
2021/12/28 04:40:01;;;;;;;153.05;74.68;;;;;;;-7.15;100.00;98785.06;5051181;28;20119;-80
2021/12/28 04:42:29;;;;;;;148.75;76.25;;;;;;;-7.17;100.00;98788.41;5052914;28;20025;-80
2021/12/28 04:44:55;;;;;;;153.80;74.10;;;;;;;-7.13;100.00;98778.31;5067747;28;20037;-80
2021/12/28 04:47:20;;;;;;;161.18;78.00;;;;;;;-7.20;100.00;98763.09;5051156;28;20036;-80
2021/12/28 04:49:46;;;;;;;158.60;76.75;;;;;;;-7.15;100.00;98769.88;5050856;28;20025;-80
2021/12/28 04:52:12;;;;;;;155.63;79.85;;;;;;;-7.14;100.00;98758.94;5052614;28;20118;-80
2021/12/28 04:54:38;;;;;;;163.57;79.88;;;;;;;-7.20;100.00;98743.69;5051223;28;20531;-80
2021/12/28 04:57:05;;;;;;;155.60;78.25;;;;;;;-7.15;100.00;98758.94;5050688;28;20116;-80
2021/12/28 04:59:31;;;;;;;165.00;80.95;;;;;;;-7.03;100.00;98764.94;5052263;28;20025;-80
2021/12/28 05:01:57;;;;;;;156.70;77.93;;;;;;;-7.17;100.00;98733.59;5050755;28;20048;-80
2021/12/28 05:04:22;;;;;;;156.73;77.07;;;;;;;-7.13;100.00;98732.78;5052233;28;20025;-80
2021/12/28 05:06:48;;;;;;;162.90;81.35;;;;;;;-6.99;100.00;98752.31;5052149;28;20032;-80
2021/12/28 05:09:15;;;;;;;165.10;82.60;;;;;;;-6.95;100.00;98761.63;5052536;28;20025;-80
2021/12/28 05:11:41;;;;;;;157.57;80.25;;;;;;;-7.02;100.00;98743.00;5052346;28;20082;-80
2021/12/28 05:14:09;;;;;;;152.48;75.53;;;;;;;-6.94;100.00;98755.75;5050828;28;20029;-80
2021/12/28 05:16:35;;;;;;;155.40;75.72;;;;;;;-6.92;100.00;98770.09;5052279;28;20039;-80
2021/12/28 05:19:03;;;;;;;168.27;80.38;;;;;;;-6.87;100.00;98765.94;5051440;28;20060;-80
2021/12/28 05:21:29;;;;;;;223.90;102.20;;;;;;;-6.82;100.00;98763.44;5052419;28;20057;-80
2021/12/28 05:23:55;;;;;;;175.88;85.57;;;;;;;-6.84;100.00;98763.41;5052154;28;20507;-80
2021/12/28 05:26:20;;;;;;;335.80;119.25;;;;;;;-6.84;100.00;98744.84;5052179;28;20107;-80
2021/12/28 05:28:46;;;;;;;192.13;87.55;;;;;;;-6.85;100.00;98748.22;5051708;28;20061;-80
2021/12/28 05:31:11;;;;;;;160.30;76.47;;;;;;;-6.95;100.00;98724.53;5051904;28;20449;-81
2021/12/28 05:33:39;;;;;;;186.25;87.07;;;;;;;-6.97;100.00;98713.53;5050482;28;20021;-80
2021/12/28 05:36:05;;;;;;;176.57;80.20;;;;;;;-6.97;100.00;98721.13;5068847;28;20050;-79
2021/12/28 05:38:31;;;;;;;185.15;86.43;;;;;;;-6.84;100.00;98733.03;5052343;28;20059;-80
2021/12/28 05:40:56;;;;;;;162.80;76.53;;;;;;;-6.82;100.00;98738.13;5069037;28;20068;-80
2021/12/28 05:43:22;;;;;;;168.52;80.68;;;;;;;-6.92;100.00;98706.81;5069296;28;20491;-80
2021/12/28 05:45:47;;;;;;;168.57;82.80;;;;;;;-6.92;100.00;98698.38;5052096;28;20036;-80
2021/12/28 05:48:12;;;;;;;171.10;81.18;;;;;;;-6.80;100.00;98713.66;5069159;28;20020;-80
2021/12/28 05:50:38;;;;;;;187.57;87.85;;;;;;;-6.74;100.00;98716.25;5069136;28;20068;-80
2021/12/28 05:53:04;;;;;;;239.90;101.47;;;;;;;-6.81;100.00;98704.38;5068820;28;20139;-76
2021/12/28 05:55:30;;;;;;;196.73;85.22;;;;;;;-6.51;100.00;98707.97;5069126;28;20064;-76
2021/12/28 05:57:56;;;;;;;190.40;84.72;;;;;;;-6.47;100.00;98702.91;5068674;28;20131;-76
2021/12/28 06:00:22;;;;;;;160.00;78.88;;;;;;;-6.42;100.00;98708.00;5069184;28;20100;-76
2021/12/28 06:02:48;;;;;;;168.80;79.50;;;;;;;-6.40;100.00;98692.00;5068701;28;20049;-77
2021/12/28 06:05:13;;;;;;;157.48;80.13;;;;;;;-6.36;100.00;98682.69;5069391;28;20027;-76
2021/12/28 06:07:39;;;;;;;159.48;78.13;;;;;;;-6.31;100.00;98674.28;5055882;28;20041;-76
2021/12/28 06:10:06;;;;;;;143.43;78.10;;;;;;;-6.31;100.00;98673.44;5051605;28;20325;-76
2021/12/28 06:12:32;;;;;;;152.30;78.38;;;;;;;-6.15;100.00;98685.38;5051497;28;20029;-75
2021/12/28 06:14:57;;;;;;;139.32;72.65;;;;;;;-6.22;100.00;98675.19;5051224;28;20071;-76
2021/12/28 06:17:23;;;;;;;156.00;78.38;;;;;;;-6.29;100.00;98657.41;5050027;28;20465;-76
2021/12/28 06:19:48;;;;;;;143.65;74.80;;;;;;;-6.37;100.00;98653.13;5051201;28;20030;-76
2021/12/28 06:22:14;;;;;;;150.40;77.68;;;;;;;-6.06;100.00;98707.38;5051442;28;20041;-76
2021/12/28 06:24:40;;;;;;;135.50;71.38;;;;;;;-5.97;100.00;98688.81;5051525;28;20033;-76
2021/12/28 06:27:05;;;;;;;142.52;72.43;;;;;;;-6.16;100.00;98668.44;5051026;28;20417;-81
2021/12/28 06:29:31;;;;;;;146.55;73.93;;;;;;;-6.11;100.00;98678.59;5049928;28;20489;-80
2021/12/28 06:31:56;;;;;;;147.93;77.60;;;;;;;-6.14;100.00;98691.28;5050903;28;20040;-81
2021/12/28 06:34:22;;;;;;;139.57;71.93;;;;;;;-6.20;100.00;98694.59;5050082;28;20032;-81
2021/12/28 06:36:47;;;;;;;148.25;77.90;;;;;;;-6.17;100.00;98702.22;5049732;28;20029;-81
2021/12/28 06:39:12;;;;;;;149.27;78.22;;;;;;;-6.20;100.00;98693.75;5050033;28;20075;-81
2021/12/28 06:41:38;;;;;;;171.15;84.97;;;;;;;-6.20;100.00;98691.22;5054739;28;20029;-80
2021/12/28 06:44:05;;;;;;;159.63;77.50;;;;;;;-6.19;100.00;98693.78;5054506;28;20031;-81
2021/12/28 06:46:30;;;;;;;144.27;76.55;;;;;;;-6.29;100.00;98672.59;5054725;28;20388;-80
2021/12/28 06:48:56;;;;;;;151.25;81.72;;;;;;;-6.17;100.00;98687.03;5053369;28;20017;-80
2021/12/28 06:51:21;;;;;;;160.55;85.80;;;;;;;-6.28;100.00;98674.31;5053604;28;20033;-81
2021/12/28 06:53:47;;;;;;;138.60;72.00;;;;;;;-6.20;100.00;98673.50;5053359;28;20025;-81
2021/12/28 06:56:12;;;;;;;136.05;72.10;;;;;;;-6.16;100.00;98680.28;5054951;28;20025;-81
2021/12/28 06:58:40;;;;;;;133.43;70.85;;;;;;;-6.16;100.00;98675.19;5053454;28;20106;-80
2021/12/28 07:01:06;;;;;;;147.18;78.65;;;;;;;-6.30;100.00;98649.81;5053421;28;20029;-80
2021/12/28 07:03:31;;;;;;;145.48;76.53;;;;;;;-6.28;100.00;98651.50;5055136;28;20174;-81
2021/12/28 07:05:57;;;;;;;155.82;79.80;;;;;;;-6.13;100.00;98673.53;5052987;28;20028;-80
2021/12/28 07:08:22;;;;;;;136.45;71.90;;;;;;;-6.08;100.00;98674.38;5053344;28;20068;-80
2021/12/28 07:10:48;;;;;;;140.20;76.38;;;;;;;-6.07;100.00;98671.03;5054429;28;20502;-81
2021/12/28 07:13:13;;;;;;;147.50;75.13;;;;;;;-6.15;100.00;98652.41;5053035;28;20082;-80
2021/12/28 07:15:39;;;;;;;146.82;75.15;;;;;;;-6.02;100.00;98676.13;5052890;28;20033;-80
2021/12/28 07:18:04;;;;;;;145.77;75.38;;;;;;;-6.01;100.00;98669.38;5052868;28;20090;-81
2021/12/28 07:20:30;;;;;;;130.15;67.60;;;;;;;-6.01;100.00;98661.75;5054340;28;20031;-80
2021/12/28 07:22:55;;;;;;;131.63;69.25;;;;;;;-6.05;100.00;98648.22;5054419;28;20369;-80
2021/12/28 07:25:21;;;;;;;145.27;78.05;;;;;;;-5.95;100.00;98644.84;5054149;28;20028;-81
2021/12/28 07:27:46;;;;;;;145.10;71.55;;;;;;;-5.87;100.00;98658.38;5052470;28;20021;-81
2021/12/28 07:30:14;;;;;;;150.90;75.72;;;;;;;-5.85;100.00;98653.34;5054273;28;20033;-80
2021/12/28 07:32:40;;;;;;;140.48;72.78;;;;;;;-5.79;100.00;98655.88;5052821;28;20041;-81
2021/12/28 07:35:07;;;;;;;142.27;74.55;;;;;;;-5.99;100.00;98622.03;5053799;28;20024;-81
2021/12/28 07:37:33;;;;;;;144.68;74.72;;;;;;;-5.74;100.00;98666.88;5052610;28;20029;-80
2021/12/28 07:39:59;;;;;;;141.48;70.53;;;;;;;-5.70;100.00;98655.88;5051818;28;20021;-80
2021/12/28 07:42:24;;;;;;;134.40;70.85;;;;;;;-5.71;100.00;98643.22;5059738;28;20028;-80
2021/12/28 07:44:49;;;;;;;152.75;77.25;;;;;;;-5.52;100.00;98665.22;5071205;28;20365;-80
2021/12/28 07:47:16;;;;;;;135.23;66.65;;;;;;;-5.49;100.00;98665.22;5074049;28;20032;-80
2021/12/28 07:49:42;;;;;;;143.05;74.43;;;;;;;-5.43;100.00;98672.03;5074031;28;20028;-80
2021/12/28 07:52:07;;;;;;;157.20;80.07;;;;;;;-5.38;100.00;98667.81;5072082;28;20531;-81
2021/12/28 07:54:33;;;;;;;145.27;75.10;;;;;;;-5.31;100.00;98656.78;5073569;28;20025;-80
2021/12/28 07:56:58;;;;;;;140.63;77.00;;;;;;;-5.33;100.00;98636.50;5073322;28;20035;-80
2021/12/28 07:59:24;;;;;;;138.95;70.20;;;;;;;-5.19;100.00;98649.19;5073218;28;20081;-79
2021/12/28 08:01:51;;;;;;;127.72;67.63;;;;;;;-5.03;100.00;98652.56;5072079;28;20036;-80
2021/12/28 08:04:17;;;;;;;127.05;68.90;;;;;;;-4.97;100.00;98660.22;5064529;28;20025;-79
2021/12/28 08:06:43;;;;;;;143.32;73.78;;;;;;;-4.78;100.00;98681.34;5067650;28;20123;-79
2021/12/28 08:09:08;;;;;;;134.32;71.07;;;;;;;-4.78;100.00;98666.09;5054502;28;20033;-80
2021/12/28 08:11:34;;;;;;;133.77;70.50;;;;;;;-4.82;100.00;98642.41;5051968;28;20037;-79
2021/12/28 08:14:00;;;;;;;138.43;68.57;;;;;;;-4.69;100.00;98655.94;5052867;28;20031;-79
2021/12/28 08:16:26;;;;;;;134.00;70.43;;;;;;;-4.52;100.00;98663.53;5053425;28;20108;-79
2021/12/28 08:18:51;;;;;;;127.60;66.43;;;;;;;-4.54;100.00;98643.22;5052935;28;20469;-79
2021/12/28 08:21:17;;;;;;;135.82;70.22;;;;;;;-4.54;100.00;98627.13;5051869;28;20029;-79
2021/12/28 08:23:43;;;;;;;133.63;68.93;;;;;;;-4.39;100.00;98646.53;5053161;28;20025;-79
2021/12/28 08:26:08;;;;;;;135.48;72.90;;;;;;;-4.44;100.00;98633.84;5051331;28;20040;-79
2021/12/28 08:28:34;;;;;;;149.38;78.50;;;;;;;-4.55;100.00;98605.94;5052878;28;20132;-78
2021/12/28 08:30:59;;;;;;;135.23;69.57;;;;;;;-4.29;100.00;98635.53;5052997;28;20036;-79
2021/12/28 08:33:25;;;;;;;142.18;72.82;;;;;;;-4.37;100.00;98612.66;5051788;28;20735;-79
2021/12/28 08:35:51;;;;;;;139.05;71.60;;;;;;;-4.23;100.00;98627.84;5051339;28;20392;-79
2021/12/28 08:38:16;;;;;;;136.68;70.82;;;;;;;-4.28;100.00;98605.00;5051622;28;20032;-78
2021/12/28 08:40:43;;;;;;;139.10;77.70;;;;;;;-4.13;100.00;98631.19;5052792;28;20389;-79
2021/12/28 08:43:13;;;;;;;121.88;65.63;;;;;;;-4.14;100.00;98602.38;5052539;28;20174;-79
2021/12/28 08:45:40;;;;;;;132.82;71.75;;;;;;;-4.06;100.00;98603.19;5053564;28;20107;-79
2021/12/28 08:48:10;;;;;;;130.68;68.28;;;;;;;-4.04;100.00;98601.50;5069866;28;20033;-79
2021/12/28 08:50:37;;;;;;;125.95;70.15;;;;;;;-3.92;100.00;98615.88;5067954;28;20064;-79
2021/12/28 08:53:04;;;;;;;137.43;67.78;;;;;;;-3.82;100.00;98614.94;5070113;28;20412;-79
2021/12/28 08:55:32;;;;;;;140.35;71.88;;;;;;;-3.78;100.00;98608.16;5069947;28;20036;-78
2021/12/28 08:57:58;;;;;;;129.73;69.18;;;;;;;-3.65;100.00;98612.31;5069534;28;20139;-78
2021/12/28 09:00:28;;;;;;;131.00;69.28;;;;;;;-3.75;100.00;98595.38;5052975;28;20656;-78
2021/12/28 09:02:55;;;;;;;133.05;70.47;;;;;;;-3.77;100.00;98599.66;5068799;28;20044;-79
2021/12/28 09:05:21;;;;;;;132.57;65.95;;;;;;;-3.68;100.00;98607.22;5069875;28;20029;-78
2021/12/28 09:07:47;;;;;;;135.90;71.10;;;;;;;-3.60;100.00;98608.03;5069546;28;20515;-79
2021/12/28 09:10:13;;;;;;;135.70;72.15;;;;;;;-3.57;100.00;98607.19;5069741;28;20080;-79
2021/12/28 09:12:39;;;;;;;137.48;73.65;;;;;;;-3.68;100.00;98601.28;5053057;28;20115;-78
2021/12/28 09:15:06;;;;;;;134.75;72.75;;;;;;;-3.73;100.00;98592.84;5069557;28;20116;-79
2021/12/28 09:17:34;;;;;;;129.27;67.10;;;;;;;-3.76;100.00;98588.63;5069633;28;20028;-80
2021/12/28 09:20:00;;;;;;;131.55;73.00;;;;;;;-3.76;100.00;98575.91;5050033;28;20502;-78
2021/12/28 09:22:26;;;;;;;129.45;69.57;;;;;;;-3.61;100.00;98600.41;5069529;28;20063;-81
2021/12/28 09:24:52;;;;;;;139.32;73.30;;;;;;;-3.65;100.00;98588.56;5054014;28;20060;-89
2021/12/28 09:27:18;;;;;;;125.88;70.07;;;;;;;-3.58;100.00;98598.69;5053437;28;20040;-80
2021/12/28 09:29:43;;;;;;;133.15;73.25;;;;;;;-3.56;100.00;98607.16;5069650;28;20029;-81
2021/12/28 09:32:09;;;;;;;136.70;76.38;;;;;;;-3.59;100.00;98591.91;5049721;28;20434;-80
2021/12/28 09:34:35;;;;;;;152.80;81.43;;;;;;;-3.54;100.00;98609.69;5052815;28;20035;-86
2021/12/28 09:37:41;;;;;;;138.90;75.40;;;;;;;-3.71;100.00;98556.34;5049408;28;20072;-94
2021/12/28 09:40:11;;;;;;;140.65;74.07;;;;;;;-3.47;100.00;98597.75;5036372;28;20033;-93
2021/12/28 09:42:37;;;;;;;136.40;76.35;;;;;;;-3.51;100.00;98590.13;5037520;28;20021;-93
2021/12/28 09:45:04;;;;;;;156.88;85.40;;;;;;;-3.59;100.00;98555.44;5035114;28;20037;-83
2021/12/28 09:47:30;;;;;;;161.98;87.55;;;;;;;-3.45;100.00;98578.25;5049212;28;20099;-84
2021/12/28 09:49:57;;;;;;;156.02;86.65;;;;;;;-3.35;100.00;98590.88;5031719;28;20091;-85
2021/12/28 09:52:22;;;;;;;196.85;102.30;;;;;;;-3.28;100.00;98584.88;5049108;28;20029;-84
2021/12/28 09:54:48;;;;;;;168.60;94.90;;;;;;;-3.19;100.00;98578.03;5048669;28;20048;-85
2021/12/28 09:57:15;;;;;;;158.77;88.55;;;;;;;-3.23;100.00;98577.22;5031651;28;20056;-85
2021/12/28 09:59:41;;;;;;;139.63;74.97;;;;;;;-3.06;100.00;98588.09;5034189;28;20037;-85
2021/12/28 10:02:10;;;;;;;134.35;75.28;;;;;;;-2.95;100.00;98582.03;5059452;28;20037;-84
2021/12/28 10:04:54;;;;;;;138.80;75.65;;;;;;;-2.86;100.00;98570.06;5058273;28;20045;-85
2021/12/28 10:07:28;;;;;;;138.98;72.85;;;;;;;-2.89;100.00;98559.91;5050705;28;20024;-85
2021/12/28 10:09:55;;;;;;;144.77;79.55;;;;;;;-2.77;100.00;98571.69;5051661;28;20065;-84
2021/12/28 10:12:31;;;;;;;140.20;75.97;;;;;;;-2.84;100.00;98547.13;5064777;28;20094;-85
2021/12/28 10:15:02;;;;;;;140.63;74.60;;;;;;;-2.87;100.00;98545.44;5068024;28;20029;-85
2021/12/28 10:17:31;;;;;;;132.32;72.60;;;;;;;-2.97;100.00;98513.28;5073997;28;20036;-85
2021/12/28 10:19:57;;;;;;;147.35;77.78;;;;;;;-2.77;100.00;98543.66;5074676;28;20070;-86
2021/12/28 10:22:35;;;;;;;153.77;78.88;;;;;;;-2.69;100.00;98544.41;5074117;28;20472;-86
2021/12/28 10:25:12;;;;;;;143.73;75.07;;;;;;;-2.76;100.00;98510.50;5073858;28;20028;-86
2021/12/28 10:27:53;;;;;;;143.48;76.72;;;;;;;-2.63;100.00;98530.75;5074057;28;20115;-86
2021/12/28 10:30:30;;;;;;;134.40;70.35;;;;;;;-2.53;100.00;98525.53;5074152;28;20090;-85
2021/12/28 10:32:58;;;;;;;126.43;71.65;;;;;;;-2.55;100.00;98517.03;5073800;28;20357;-85
2021/12/28 10:35:30;;;;;;;134.60;72.53;;;;;;;-2.38;100.00;98521.09;5073941;28;20036;-86
2021/12/28 10:38:03;;;;;;;138.52;75.55;;;;;;;-2.34;100.00;98520.19;5073481;28;20078;-86
2021/12/28 10:40:40;;;;;;;137.75;73.13;;;;;;;-2.28;100.00;98510.75;5074123;28;20031;-95
2021/12/28 10:43:14;;;;;;;142.73;74.22;;;;;;;-2.33;100.00;98491.28;5077163;28;20048;-94
2021/12/28 10:46:10;;;;;;;131.57;72.25;;;;;;;-2.14;100.00;98507.19;5036658;28;20033;-94
2021/12/28 10:48:45;;;;;;;121.30;67.05;;;;;;;-2.12;100.00;98503.72;5025508;28;20056;-87
2021/12/28 10:51:27;;;;;;;130.65;71.72;;;;;;;-2.03;100.00;98497.66;5045090;28;20041;-95
2021/12/28 10:54:14;;;;;;;125.38;66.88;;;;;;;-1.93;100.00;98496.66;4995185;28;20035;-94
2021/12/28 10:56:49;;;;;;;135.68;74.50;;;;;;;-1.85;100.00;98494.84;4945579;28;20043;-94
2021/12/28 10:59:36;;;;;;;121.85;66.05;;;;;;;-1.96;100.00;98463.53;4958091;29;20054;-94
2021/12/28 11:02:04;;;;;;;123.75;66.05;;;;;;;-1.85;100.00;98465.94;4942372;29;20488;-91
2021/12/28 11:04:36;;;;;;;123.55;66.60;;;;;;;-1.63;100.00;98485.13;4974971;28;20114;-94